sensor_id;sensor_type;location;lat;lon;timestamp;pressure;altitude;pressure_sealevel;temperature;humidity
7018;BME280;3549;42.162;24.726;2022-07-06T00:01:25;98910.09;;;22.77;56.82
7018;BME280;3549;42.162;24.726;2022-07-06T00:03:50;98735.34;;;21.54;56.78
7018;BME280;3549;42.162;24.726;2022-07-06T00:06:16;98564.53;;;20.75;56.00
7018;BME280;3549;42.162;24.726;2022-07-06T00:08:43;98890.34;;;22.75;55.82
7018;BME280;3549;42.162;24.726;2022-07-06T00:11:09;98792.41;;;21.99;56.39
7018;BME280;3549;42.162;24.726;2022-07-06T00:13:34;98952.28;;;22.75;58.36
7018;BME280;3549;42.162;24.726;2022-07-06T00:16:00;98746.94;;;21.05;62.55
7018;BME280;3549;42.162;24.726;2022-07-06T00:18:25;98727.50;;;20.74;64.01
7018;BME280;3549;42.162;24.726;2022-07-06T00:20:51;99029.53;;;22.03;66.48
7018;BME280;3549;42.162;24.726;2022-07-06T00:23:16;98532.41;;;18.75;68.46
7018;BME280;3549;42.162;24.726;2022-07-06T00:25:42;98765.63;;;19.90;69.91
7018;BME280;3549;42.162;24.726;2022-07-06T00:28:08;99150.56;;;22.26;70.41
7018;BME280;3549;42.162;24.726;2022-07-06T00:30:33;98935.84;;;20.75;71.81
7018;BME280;3549;42.162;24.726;2022-07-06T00:32:59;98740.91;;;19.34;73.55
7018;BME280;3549;42.162;24.726;2022-07-06T00:35:25;98493.19;;;18.09;73.69
7018;BME280;3549;42.162;24.726;2022-07-06T00:37:51;99120.63;;;22.04;72.84
7018;BME280;3549;42.162;24.726;2022-07-06T00:40:17;98523.91;;;18.31;73.29
7018;BME280;3549;42.162;24.726;2022-07-06T00:42:47;98891.47;;;20.26;74.70
7018;BME280;3549;42.162;24.726;2022-07-06T00:45:14;98775.88;;;19.91;73.52
7018;BME280;3549;42.162;24.726;2022-07-06T00:47:41;98543.47;;;18.95;71.67
7018;BME280;3549;42.162;24.726;2022-07-06T00:50:11;98615.13;;;19.48;71.82
7018;BME280;3549;42.162;24.726;2022-07-06T00:52:48;98670.72;;;19.57;72.68
7018;BME280;3549;42.162;24.726;2022-07-06T00:55:16;98749.34;;;19.95;73.29
7018;BME280;3549;42.162;24.726;2022-07-06T00:57:42;98742.50;;;19.93;74.48
7018;BME280;3549;42.162;24.726;2022-07-06T01:00:10;98853.63;;;20.57;74.67
7018;BME280;3549;42.162;24.726;2022-07-06T01:02:36;98764.56;;;20.42;72.74
7018;BME280;3549;42.162;24.726;2022-07-06T01:05:06;98872.03;;;21.36;71.75
7018;BME280;3549;42.162;24.726;2022-07-06T01:07:33;98930.25;;;21.55;72.78
7018;BME280;3549;42.162;24.726;2022-07-06T01:09:59;98553.53;;;19.43;71.54
7018;BME280;3549;42.162;24.726;2022-07-06T01:12:25;98850.34;;;21.60;70.63
7018;BME280;3549;42.162;24.726;2022-07-06T01:14:50;98723.03;;;20.91;70.49
7018;BME280;3549;42.162;24.726;2022-07-06T01:17:17;98959.53;;;22.43;69.96
7018;BME280;3549;42.162;24.726;2022-07-06T01:19:42;98836.47;;;21.73;69.38
7018;BME280;3549;42.162;24.726;2022-07-06T01:22:09;99056.91;;;23.05;69.42
7018;BME280;3549;42.162;24.726;2022-07-06T01:24:35;98835.47;;;21.91;68.66
7018;BME280;3549;42.162;24.726;2022-07-06T01:27:02;98990.03;;;22.86;68.49
7018;BME280;3549;42.162;24.726;2022-07-06T01:29:27;98701.25;;;21.30;68.09
7018;BME280;3549;42.162;24.726;2022-07-06T01:31:53;99030.88;;;23.23;68.47
7018;BME280;3549;42.162;24.726;2022-07-06T01:34:19;99002.63;;;23.11;68.02
7018;BME280;3549;42.162;24.726;2022-07-06T01:36:44;99016.28;;;23.19;67.94
7018;BME280;3549;42.162;24.726;2022-07-06T01:39:10;98790.78;;;21.92;67.68
7018;BME280;3549;42.162;24.726;2022-07-06T01:41:36;98806.97;;;22.04;67.57
7018;BME280;3549;42.162;24.726;2022-07-06T01:44:02;98908.53;;;22.67;66.85
7018;BME280;3549;42.162;24.726;2022-07-06T01:46:28;99006.66;;;23.30;67.38
7018;BME280;3549;42.162;24.726;2022-07-06T01:48:54;98737.56;;;21.85;65.89
7018;BME280;3549;42.162;24.726;2022-07-06T01:51:19;98894.66;;;22.76;65.83
7018;BME280;3549;42.162;24.726;2022-07-06T01:53:45;98887.06;;;22.65;67.55
7018;BME280;3549;42.162;24.726;2022-07-06T01:56:11;98713.22;;;21.37;69.16
7018;BME280;3549;42.162;24.726;2022-07-06T01:58:37;98895.91;;;22.42;69.58
7018;BME280;3549;42.162;24.726;2022-07-06T02:01:10;98938.75;;;22.53;70.11
7018;BME280;3549;42.162;24.726;2022-07-06T02:03:36;98681.75;;;21.09;70.50
7018;BME280;3549;42.162;24.726;2022-07-06T02:06:02;98698.91;;;21.02;71.48
7018;BME280;3549;42.162;24.726;2022-07-06T02:08:28;98796.28;;;21.58;72.09
7018;BME280;3549;42.162;24.726;2022-07-06T02:10:53;98682.72;;;20.91;72.12
7018;BME280;3549;42.162;24.726;2022-07-06T02:13:19;98765.59;;;21.34;71.97
7018;BME280;3549;42.162;24.726;2022-07-06T02:15:45;98985.16;;;22.59;72.39
7018;BME280;3549;42.162;24.726;2022-07-06T02:18:10;98580.28;;;20.41;71.83
7018;BME280;3549;42.162;24.726;2022-07-06T02:20:36;98868.75;;;22.09;71.76
7018;BME280;3549;42.162;24.726;2022-07-06T02:23:01;98761.13;;;21.51;71.04
7018;BME280;3549;42.162;24.726;2022-07-06T02:25:26;98563.94;;;20.47;70.57
7018;BME280;3549;42.162;24.726;2022-07-06T02:27:52;98773.94;;;21.59;70.77
7018;BME280;3549;42.162;24.726;2022-07-06T02:30:17;98900.34;;;22.29;71.41
7018;BME280;3549;42.162;24.726;2022-07-06T02:32:43;98704.81;;;21.18;71.10
7018;BME280;3549;42.162;24.726;2022-07-06T02:35:08;98915.69;;;22.44;70.66
7018;BME280;3549;42.162;24.726;2022-07-06T02:37:34;98987.50;;;22.80;70.77
7018;BME280;3549;42.162;24.726;2022-07-06T02:39:59;98438.03;;;19.43;70.46
7018;BME280;3549;42.162;24.726;2022-07-06T02:42:25;98997.91;;;22.74;70.56
7018;BME280;3549;42.162;24.726;2022-07-06T02:44:55;98613.72;;;20.41;69.69
7018;BME280;3549;42.162;24.726;2022-07-06T02:47:20;98791.19;;;21.49;69.80
7018;BME280;3549;42.162;24.726;2022-07-06T02:49:45;99008.19;;;22.77;70.24
7018;BME280;3549;42.162;24.726;2022-07-06T02:52:11;98489.19;;;19.71;69.67
7018;BME280;3549;42.162;24.726;2022-07-06T02:54:36;98524.97;;;19.92;70.27
7018;BME280;3549;42.162;24.726;2022-07-06T02:57:02;98948.31;;;22.45;70.40
7018;BME280;3549;42.162;24.726;2022-07-06T02:59:28;98478.09;;;19.66;69.99
7018;BME280;3549;42.162;24.726;2022-07-06T03:01:53;98926.03;;;22.40;69.86
7018;BME280;3549;42.162;24.726;2022-07-06T03:04:19;98736.47;;;21.28;69.61
7018;BME280;3549;42.162;24.726;2022-07-06T03:06:44;99003.88;;;22.78;70.03
7018;BME280;3549;42.162;24.726;2022-07-06T03:09:09;98611.03;;;20.53;69.40
7018;BME280;3549;42.162;24.726;2022-07-06T03:11:35;98555.72;;;20.04;70.19
7018;BME280;3549;42.162;24.726;2022-07-06T03:14:03;98717.75;;;21.12;71.41
7018;BME280;3549;42.162;24.726;2022-07-06T03:16:29;98653.22;;;20.31;73.57
7018;BME280;3549;42.162;24.726;2022-07-06T03:18:55;98509.06;;;19.45;74.52
7018;BME280;3549;42.162;24.726;2022-07-06T03:21:20;98603.75;;;19.94;75.01
7018;BME280;3549;42.162;24.726;2022-07-06T03:23:46;98784.69;;;21.04;74.71
7018;BME280;3549;42.162;24.726;2022-07-06T03:26:11;98948.91;;;21.86;75.55
7018;BME280;3549;42.162;24.726;2022-07-06T03:28:37;98799.41;;;20.89;76.08
7018;BME280;3549;42.162;24.726;2022-07-06T03:31:02;98913.72;;;21.79;75.37
7018;BME280;3549;42.162;24.726;2022-07-06T03:33:27;99023.91;;;22.55;74.01
7018;BME280;3549;42.162;24.726;2022-07-06T03:35:53;98688.91;;;20.69;73.59
7018;BME280;3549;42.162;24.726;2022-07-06T03:38:18;98915.19;;;22.09;73.94
7018;BME280;3549;42.162;24.726;2022-07-06T03:40:44;98832.38;;;21.52;73.97
7018;BME280;3549;42.162;24.726;2022-07-06T03:43:09;98659.69;;;20.78;73.67
7018;BME280;3549;42.162;24.726;2022-07-06T03:45:35;98741.50;;;21.41;72.85
7018;BME280;3549;42.162;24.726;2022-07-06T03:48:00;98914.66;;;22.56;71.97
7018;BME280;3549;42.162;24.726;2022-07-06T03:50:25;99050.78;;;23.15;72.13
7018;BME280;3549;42.162;24.726;2022-07-06T03:52:51;98461.16;;;19.34;73.82
7018;BME280;3549;42.162;24.726;2022-07-06T03:55:16;98508.13;;;19.53;74.24
7018;BME280;3549;42.162;24.726;2022-07-06T03:57:42;99031.50;;;22.70;72.66
7018;BME280;3549;42.162;24.726;2022-07-06T04:00:08;98940.97;;;22.10;72.36
7018;BME280;3549;42.162;24.726;2022-07-06T04:02:34;99018.00;;;22.44;74.54
7018;BME280;3549;42.162;24.726;2022-07-06T04:05:00;98950.63;;;21.89;77.81
7018;BME280;3549;42.162;24.726;2022-07-06T04:07:25;98830.13;;;21.14;78.37
7018;BME280;3549;42.162;24.726;2022-07-06T04:09:51;98868.44;;;21.52;78.61
7018;BME280;3549;42.162;24.726;2022-07-06T04:12:16;98963.44;;;21.96;78.81
7018;BME280;3549;42.162;24.726;2022-07-06T04:14:43;98962.44;;;22.09;78.26
7018;BME280;3549;42.162;24.726;2022-07-06T04:17:08;98836.88;;;21.29;79.10
7018;BME280;3549;42.162;24.726;2022-07-06T04:19:52;98670.19;;;20.53;78.31
7018;BME280;3549;42.162;24.726;2022-07-06T04:22:18;98670.22;;;20.50;78.39
7018;BME280;3549;42.162;24.726;2022-07-06T04:24:44;98396.50;;;18.73;79.91
7018;BME280;3549;42.162;24.726;2022-07-06T04:27:09;98424.59;;;18.96;80.91
7018;BME280;3549;42.162;24.726;2022-07-06T04:29:35;98542.06;;;19.99;80.60
7018;BME280;3549;42.162;24.726;2022-07-06T04:32:01;98614.06;;;20.93;78.02
7018;BME280;3549;42.162;24.726;2022-07-06T04:34:26;99049.44;;;23.54;77.86
7018;BME280;3549;42.162;24.726;2022-07-06T04:36:52;98807.09;;;21.92;79.49
7018;BME280;3549;42.162;24.726;2022-07-06T04:39:18;98418.47;;;19.21;81.96
7018;BME280;3549;42.162;24.726;2022-07-06T04:41:43;98818.22;;;21.96;80.54
7018;BME280;3549;42.162;24.726;2022-07-06T04:44:09;98735.31;;;21.59;79.83
7018;BME280;3549;42.162;24.726;2022-07-06T04:46:36;98607.84;;;21.20;79.27
7018;BME280;3549;42.162;24.726;2022-07-06T04:49:02;98585.25;;;21.40;78.21
7018;BME280;3549;42.162;24.726;2022-07-06T04:51:28;98790.88;;;22.50;78.23
7018;BME280;3549;42.162;24.726;2022-07-06T04:53:53;98523.88;;;21.07;77.46
7018;BME280;3549;42.162;24.726;2022-07-06T04:56:19;98626.59;;;21.31;79.65
7018;BME280;3549;42.162;24.726;2022-07-06T04:58:44;99055.91;;;23.83;80.04
7018;BME280;3549;42.162;24.726;2022-07-06T05:01:10;98972.53;;;23.69;78.45
7018;BME280;3549;42.162;24.726;2022-07-06T05:03:35;98535.56;;;20.59;80.12
7018;BME280;3549;42.162;24.726;2022-07-06T05:06:05;98634.22;;;21.39;80.37
7018;BME280;3549;42.162;24.726;2022-07-06T05:08:30;99064.41;;;23.90;80.49
7018;BME280;3549;42.162;24.726;2022-07-06T05:10:56;99050.38;;;24.06;79.72
7018;BME280;3549;42.162;24.726;2022-07-06T05:13:22;98830.38;;;22.56;81.47
7018;BME280;3549;42.162;24.726;2022-07-06T05:15:47;98885.09;;;22.82;81.26
7018;BME280;3549;42.162;24.726;2022-07-06T05:18:13;98906.28;;;23.06;80.52
7018;BME280;3549;42.162;24.726;2022-07-06T05:20:38;98867.88;;;22.84;80.13
7018;BME280;3549;42.162;24.726;2022-07-06T05:23:04;99055.97;;;23.77;80.95
7018;BME280;3549;42.162;24.726;2022-07-06T05:25:29;98738.63;;;22.37;78.83
7018;BME280;3549;42.162;24.726;2022-07-06T05:27:55;99063.50;;;24.47;77.57
7018;BME280;3549;42.162;24.726;2022-07-06T05:30:21;98866.03;;;22.92;78.37
7018;BME280;3549;42.162;24.726;2022-07-06T05:32:46;98814.59;;;22.77;78.61
7018;BME280;3549;42.162;24.726;2022-07-06T05:35:12;98679.34;;;22.36;77.12
7018;BME280;3549;42.162;24.726;2022-07-06T05:37:37;98766.88;;;22.45;78.37
7018;BME280;3549;42.162;24.726;2022-07-06T05:40:03;98934.56;;;23.15;80.09
7018;BME280;3549;42.162;24.726;2022-07-06T05:42:29;99090.22;;;23.94;81.36
7018;BME280;3549;42.162;24.726;2022-07-06T05:44:55;98742.06;;;22.36;79.11
7018;BME280;3549;42.162;24.726;2022-07-06T05:47:21;99079.16;;;24.40;78.95
7018;BME280;3549;42.162;24.726;2022-07-06T05:50:06;99075.75;;;24.38;79.60
7018;BME280;3549;42.162;24.726;2022-07-06T05:52:39;98933.78;;;23.68;79.08
7018;BME280;3549;42.162;24.726;2022-07-06T05:55:05;98894.88;;;23.75;77.29
7018;BME280;3549;42.162;24.726;2022-07-06T05:57:30;98678.13;;;21.98;78.13
7018;BME280;3549;42.162;24.726;2022-07-06T05:59:56;99092.00;;;24.46;78.62
7018;BME280;3549;42.162;24.726;2022-07-06T06:02:21;98977.69;;;23.69;79.02
7018;BME280;3549;42.162;24.726;2022-07-06T06:04:47;98998.88;;;24.43;77.23
7018;BME280;3549;42.162;24.726;2022-07-06T06:07:12;99084.31;;;24.90;76.66
7018;BME280;3549;42.162;24.726;2022-07-06T06:09:38;99019.97;;;24.67;75.99
7018;BME280;3549;42.162;24.726;2022-07-06T06:12:03;98514.28;;;21.81;74.17
7018;BME280;3549;42.162;24.726;2022-07-06T06:14:29;98597.63;;;22.38;73.66
7018;BME280;3549;42.162;24.726;2022-07-06T06:16:54;98722.66;;;23.68;71.28
7018;BME280;3549;42.162;24.726;2022-07-06T06:19:20;99037.19;;;25.56;70.87
7018;BME280;3549;42.162;24.726;2022-07-06T06:21:45;98671.34;;;23.50;70.33
7018;BME280;3549;42.162;24.726;2022-07-06T06:24:11;98739.09;;;24.08;68.58
7018;BME280;3549;42.162;24.726;2022-07-06T06:26:36;98840.59;;;24.62;68.25
7018;BME280;3549;42.162;24.726;2022-07-06T06:29:02;98955.41;;;25.41;68.25
7018;BME280;3549;42.162;24.726;2022-07-06T06:31:27;98867.09;;;24.74;68.14
7018;BME280;3549;42.162;24.726;2022-07-06T06:33:53;99033.44;;;26.04;65.61
7018;BME280;3549;42.162;24.726;2022-07-06T06:36:19;98865.59;;;24.63;68.06
7018;BME280;3549;42.162;24.726;2022-07-06T06:38:44;98923.47;;;25.02;68.26
7018;BME280;3549;42.162;24.726;2022-07-06T06:41:09;98965.31;;;25.62;65.97
7018;BME280;3549;42.162;24.726;2022-07-06T06:43:35;99094.41;;;27.23;63.07
7018;BME280;3549;42.162;24.726;2022-07-06T06:46:00;99032.88;;;26.28;64.19
7018;BME280;3549;42.162;24.726;2022-07-06T06:48:26;98804.41;;;24.59;65.10
7018;BME280;3549;42.162;24.726;2022-07-06T06:50:51;98979.41;;;25.51;65.00
7018;BME280;3549;42.162;24.726;2022-07-06T06:53:17;99009.94;;;25.75;64.76
7018;BME280;3549;42.162;24.726;2022-07-06T06:55:43;98825.66;;;24.74;65.14
7018;BME280;3549;42.162;24.726;2022-07-06T06:58:08;98742.28;;;24.21;65.05
7018;BME280;3549;42.162;24.726;2022-07-06T07:00:34;99041.94;;;26.11;64.52
7018;BME280;3549;42.162;24.726;2022-07-06T07:02:59;99013.06;;;26.24;63.00
7018;BME280;3549;42.162;24.726;2022-07-06T07:05:25;98879.41;;;25.04;64.71
7018;BME280;3549;42.162;24.726;2022-07-06T07:07:50;99070.28;;;26.54;63.76
7018;BME280;3549;42.162;24.726;2022-07-06T07:10:16;98987.34;;;25.80;64.72
7018;BME280;3549;42.162;24.726;2022-07-06T07:12:48;98922.31;;;25.52;63.61
7018;BME280;3549;42.162;24.726;2022-07-06T07:15:14;98999.38;;;25.83;64.17
7018;BME280;3549;42.162;24.726;2022-07-06T07:17:40;98937.78;;;25.18;65.15
7018;BME280;3549;42.162;24.726;2022-07-06T07:20:07;99080.28;;;26.35;64.56
7018;BME280;3549;42.162;24.726;2022-07-06T07:22:32;98896.47;;;25.12;64.68
7018;BME280;3549;42.162;24.726;2022-07-06T07:24:58;98974.84;;;25.60;65.76
7018;BME280;3549;42.162;24.726;2022-07-06T07:27:26;98755.97;;;24.28;65.37
7018;BME280;3549;42.162;24.726;2022-07-06T07:29:52;99017.22;;;25.96;64.28
7018;BME280;3549;42.162;24.726;2022-07-06T07:32:18;99021.56;;;26.31;63.89
7018;BME280;3549;42.162;24.726;2022-07-06T07:34:45;99036.53;;;26.54;62.26
7018;BME280;3549;42.162;24.726;2022-07-06T07:37:10;98912.09;;;25.82;62.13
7018;BME280;3549;42.162;24.726;2022-07-06T07:39:36;99002.19;;;26.43;62.00
7018;BME280;3549;42.162;24.726;2022-07-06T07:42:01;98619.03;;;23.80;62.25
7018;BME280;3549;42.162;24.726;2022-07-06T07:44:27;98687.28;;;23.72;64.25
7018;BME280;3549;42.162;24.726;2022-07-06T07:46:52;99084.44;;;26.07;64.10
7018;BME280;3549;42.162;24.726;2022-07-06T07:49:18;99022.63;;;25.50;64.85
7018;BME280;3549;42.162;24.726;2022-07-06T07:51:46;99101.34;;;25.86;65.82
7018;BME280;3549;42.162;24.726;2022-07-06T07:54:12;99044.28;;;25.86;64.99
7018;BME280;3549;42.162;24.726;2022-07-06T07:56:37;98519.56;;;23.18;63.71
7018;BME280;3549;42.162;24.726;2022-07-06T07:59:05;98988.56;;;26.34;62.18
7018;BME280;3549;42.162;24.726;2022-07-06T08:01:31;98650.75;;;24.27;62.30
7018;BME280;3549;42.162;24.726;2022-07-06T08:03:57;99082.00;;;27.02;62.06
7018;BME280;3549;42.162;24.726;2022-07-06T08:06:23;99085.34;;;27.36;61.19
7018;BME280;3549;42.162;24.726;2022-07-06T08:08:48;99037.25;;;27.22;60.20
7018;BME280;3549;42.162;24.726;2022-07-06T08:11:13;98946.16;;;26.66;60.38
7018;BME280;3549;42.162;24.726;2022-07-06T08:13:39;98880.69;;;25.92;60.95
7018;BME280;3549;42.162;24.726;2022-07-06T08:16:04;98828.38;;;26.07;60.00
7018;BME280;3549;42.162;24.726;2022-07-06T08:18:30;99011.31;;;26.89;60.55
7018;BME280;3549;42.162;24.726;2022-07-06T08:20:55;98889.06;;;26.03;61.11
7018;BME280;3549;42.162;24.726;2022-07-06T08:23:22;99074.88;;;27.69;59.08
7018;BME280;3549;42.162;24.726;2022-07-06T08:25:48;99077.28;;;27.16;60.61
7018;BME280;3549;42.162;24.726;2022-07-06T08:28:14;99063.97;;;27.58;58.72
7018;BME280;3549;42.162;24.726;2022-07-06T08:30:39;98854.38;;;26.38;59.56
7018;BME280;3549;42.162;24.726;2022-07-06T08:33:05;98981.63;;;27.27;58.73
7018;BME280;3549;42.162;24.726;2022-07-06T08:35:30;98944.66;;;27.18;58.12
7018;BME280;3549;42.162;24.726;2022-07-06T08:37:56;99063.22;;;28.09;57.74
7018;BME280;3549;42.162;24.726;2022-07-06T08:40:22;98922.38;;;27.11;58.18
7018;BME280;3549;42.162;24.726;2022-07-06T08:42:53;98989.50;;;27.53;57.57
7018;BME280;3549;42.162;24.726;2022-07-06T08:45:19;99028.06;;;27.95;57.43
7018;BME280;3549;42.162;24.726;2022-07-06T08:47:45;99050.91;;;28.39;56.95
7018;BME280;3549;42.162;24.726;2022-07-06T08:50:13;99066.06;;;28.00;58.06
7018;BME280;3549;42.162;24.726;2022-07-06T08:52:39;98853.44;;;26.70;57.98
7018;BME280;3549;42.162;24.726;2022-07-06T08:55:05;99043.44;;;28.04;57.26
7018;BME280;3549;42.162;24.726;2022-07-06T08:57:31;99055.25;;;27.59;58.88
7018;BME280;3549;42.162;24.726;2022-07-06T08:59:56;99067.72;;;27.47;60.35
7018;BME280;3549;42.162;24.726;2022-07-06T09:02:24;98944.06;;;26.80;60.60
7018;BME280;3549;42.162;24.726;2022-07-06T09:04:54;98946.38;;;27.19;58.66
7018;BME280;3549;42.162;24.726;2022-07-06T09:07:21;99057.19;;;27.80;59.56
7018;BME280;3549;42.162;24.726;2022-07-06T09:09:47;98993.25;;;27.16;60.73
7018;BME280;3549;42.162;24.726;2022-07-06T09:12:13;98865.38;;;26.15;61.64
7018;BME280;3549;42.162;24.726;2022-07-06T09:14:38;99071.16;;;27.19;62.76
7018;BME280;3549;42.162;24.726;2022-07-06T09:17:05;99021.91;;;26.83;64.48
7018;BME280;3549;42.162;24.726;2022-07-06T09:19:32;99083.56;;;27.38;62.75
7018;BME280;3549;42.162;24.726;2022-07-06T09:21:59;99024.84;;;27.02;62.76
7018;BME280;3549;42.162;24.726;2022-07-06T09:24:25;99066.34;;;27.34;62.26
7018;BME280;3549;42.162;24.726;2022-07-06T09:26:54;98890.56;;;26.12;62.56
7018;BME280;3549;42.162;24.726;2022-07-06T09:29:28;99080.59;;;27.21;63.18
7018;BME280;3549;42.162;24.726;2022-07-06T09:32:01;98947.97;;;26.64;62.50
7018;BME280;3549;42.162;24.726;2022-07-06T09:37:07;98879.75;;;26.58;61.41
7018;BME280;3549;42.162;24.726;2022-07-06T09:39:33;98780.03;;;26.35;60.36
7018;BME280;3549;42.162;24.726;2022-07-06T09:42:00;98910.13;;;27.42;59.15
7018;BME280;3549;42.162;24.726;2022-07-06T09:44:30;98781.34;;;26.49;59.59
7018;BME280;3549;42.162;24.726;2022-07-06T09:47:00;99022.69;;;27.99;59.65
7018;BME280;3549;42.162;24.726;2022-07-06T09:49:26;99016.56;;;28.28;57.47
7018;BME280;3549;42.162;24.726;2022-07-06T09:51:55;98921.19;;;27.99;56.63
7018;BME280;3549;42.162;24.726;2022-07-06T09:54:21;99056.00;;;29.16;55.29
7018;BME280;3549;42.162;24.726;2022-07-06T09:56:49;99051.25;;;28.80;54.84
7018;BME280;3549;42.162;24.726;2022-07-06T09:59:25;98956.69;;;28.02;54.96
7018;BME280;3549;42.162;24.726;2022-07-06T10:01:52;98987.72;;;28.09;55.76
7018;BME280;3549;42.162;24.726;2022-07-06T10:04:18;98803.03;;;27.03;56.08
7018;BME280;3549;42.162;24.726;2022-07-06T10:06:45;98964.81;;;28.44;54.36
7018;BME280;3549;42.162;24.726;2022-07-06T10:09:12;98875.41;;;28.43;52.78
7018;BME280;3549;42.162;24.726;2022-07-06T10:11:40;99037.03;;;29.36;52.09
7018;BME280;3549;42.162;24.726;2022-07-06T10:14:07;99036.06;;;29.39;52.14
7018;BME280;3549;42.162;24.726;2022-07-06T10:16:37;99033.91;;;29.50;52.04
7018;BME280;3549;42.162;24.726;2022-07-06T10:19:07;98681.75;;;27.99;50.23
7018;BME280;3549;42.162;24.726;2022-07-06T10:21:38;99031.31;;;30.35;49.61
7018;BME280;3549;42.162;24.726;2022-07-06T10:24:05;98998.28;;;29.70;50.76
7018;BME280;3549;42.162;24.726;2022-07-06T10:26:35;99028.72;;;29.93;49.48
7018;BME280;3549;42.162;24.726;2022-07-06T10:29:02;99020.47;;;30.24;49.01
7018;BME280;3549;42.162;24.726;2022-07-06T10:31:29;99025.59;;;30.47;47.88
7018;BME280;3549;42.162;24.726;2022-07-06T10:34:00;98998.94;;;30.59;47.62
7018;BME280;3549;42.162;24.726;2022-07-06T10:36:27;98880.19;;;30.26;46.52
7018;BME280;3549;42.162;24.726;2022-07-06T10:38:53;99012.63;;;30.24;47.69
7018;BME280;3549;42.162;24.726;2022-07-06T10:41:33;98876.38;;;29.94;47.65
7018;BME280;3549;42.162;24.726;2022-07-06T10:44:36;98950.66;;;31.24;45.58
7018;BME280;3549;42.162;24.726;2022-07-06T10:47:09;98951.38;;;31.09;44.82
7018;BME280;3549;42.162;24.726;2022-07-06T10:49:48;98857.47;;;30.28;46.63
7018;BME280;3549;42.162;24.726;2022-07-06T10:52:16;98830.59;;;31.01;43.78
7018;BME280;3549;42.162;24.726;2022-07-06T10:54:43;98797.56;;;31.34;43.18
7018;BME280;3549;42.162;24.726;2022-07-06T10:57:09;98904.91;;;31.68;41.73
7018;BME280;3549;42.162;24.726;2022-07-06T10:59:35;98781.63;;;31.73;40.25
7018;BME280;3549;42.162;24.726;2022-07-06T11:02:17;99008.53;;;32.42;40.47
7018;BME280;3549;42.162;24.726;2022-07-06T11:04:47;98978.69;;;31.93;41.89
7018;BME280;3549;42.162;24.726;2022-07-06T11:07:18;98913.84;;;31.45;40.31
7018;BME280;3549;42.162;24.726;2022-07-06T11:09:59;98963.59;;;31.98;40.90
7018;BME280;3549;42.162;24.726;2022-07-06T11:12:25;98776.38;;;31.21;40.36
7018;BME280;3549;42.162;24.726;2022-07-06T11:14:52;98996.72;;;32.85;38.78
7018;BME280;3549;42.162;24.726;2022-07-06T11:17:18;99005.16;;;33.23;39.27
7018;BME280;3549;42.162;24.726;2022-07-06T11:19:50;98804.63;;;32.96;38.85
7018;BME280;3549;42.162;24.726;2022-07-06T11:22:20;98950.47;;;33.92;35.07
7018;BME280;3549;42.162;24.726;2022-07-06T11:24:46;98924.84;;;33.66;36.50
7018;BME280;3549;42.162;24.726;2022-07-06T11:27:11;98570.59;;;31.22;35.37
7018;BME280;3549;42.162;24.726;2022-07-06T11:29:37;98662.00;;;31.40;36.53
7018;BME280;3549;42.162;24.726;2022-07-06T11:32:05;98899.91;;;32.48;36.33
7018;BME280;3549;42.162;24.726;2022-07-06T11:34:36;98876.78;;;32.39;36.73
7018;BME280;3549;42.162;24.726;2022-07-06T11:37:04;98792.78;;;31.76;37.63
7018;BME280;3549;42.162;24.726;2022-07-06T11:39:31;98947.63;;;32.87;37.06
7018;BME280;3549;42.162;24.726;2022-07-06T11:41:58;98645.81;;;31.34;36.75
7018;BME280;3549;42.162;24.726;2022-07-06T11:44:24;98839.94;;;32.42;36.92
7018;BME280;3549;42.162;24.726;2022-07-06T11:46:50;98928.72;;;33.29;36.15
7018;BME280;3549;42.162;24.726;2022-07-06T11:49:16;98735.78;;;32.77;35.29
7018;BME280;3549;42.162;24.726;2022-07-06T11:51:42;98923.53;;;34.32;35.14
7018;BME280;3549;42.162;24.726;2022-07-06T11:54:13;98643.00;;;33.23;34.61
7018;BME280;3549;42.162;24.726;2022-07-06T11:57:07;98967.56;;;33.69;35.76
7018;BME280;3549;42.162;24.726;2022-07-06T11:59:36;98844.94;;;31.81;37.80
7018;BME280;3549;42.162;24.726;2022-07-06T12:02:06;98841.44;;;31.97;38.42
7018;BME280;3549;42.162;24.726;2022-07-06T12:04:34;98723.38;;;31.52;37.66
7018;BME280;3549;42.162;24.726;2022-07-06T12:07:05;98843.66;;;32.55;35.52
7018;BME280;3549;42.162;24.726;2022-07-06T12:09:36;98896.00;;;33.03;33.88
7018;BME280;3549;42.162;24.726;2022-07-06T12:12:03;98876.97;;;32.68;34.92
7018;BME280;3549;42.162;24.726;2022-07-06T12:14:33;98574.63;;;30.77;34.90
7018;BME280;3549;42.162;24.726;2022-07-06T12:17:07;98957.81;;;33.09;36.11
7018;BME280;3549;42.162;24.726;2022-07-06T12:19:33;98959.53;;;33.25;35.87
7018;BME280;3549;42.162;24.726;2022-07-06T12:21:59;98760.41;;;32.58;35.22
7018;BME280;3549;42.162;24.726;2022-07-06T12:24:28;98949.69;;;33.90;34.65
7018;BME280;3549;42.162;24.726;2022-07-06T12:26:56;98923.38;;;34.06;35.18
7018;BME280;3549;42.162;24.726;2022-07-06T12:29:22;98911.16;;;34.63;34.56
7018;BME280;3549;42.162;24.726;2022-07-06T12:31:55;98832.69;;;33.84;34.93
7018;BME280;3549;42.162;24.726;2022-07-06T12:34:26;98874.81;;;33.83;34.93
7018;BME280;3549;42.162;24.726;2022-07-06T12:36:56;98940.06;;;35.05;33.41
7018;BME280;3549;42.162;24.726;2022-07-06T12:39:27;98834.16;;;34.47;33.95
7018;BME280;3549;42.162;24.726;2022-07-06T12:41:55;98946.13;;;35.61;33.24
7018;BME280;3549;42.162;24.726;2022-07-06T12:44:24;98932.09;;;33.76;35.51
7018;BME280;3549;42.162;24.726;2022-07-06T12:47:01;98786.88;;;32.54;36.31
7018;BME280;3549;42.162;24.726;2022-07-06T12:49:27;98798.63;;;33.83;34.72
7018;BME280;3549;42.162;24.726;2022-07-06T12:52:08;98926.25;;;35.42;34.52
7018;BME280;3549;42.162;24.726;2022-07-06T12:54:41;98929.88;;;37.07;32.45
7018;BME280;3549;42.162;24.726;2022-07-06T12:57:11;98594.63;;;34.89;33.18
7018;BME280;3549;42.162;24.726;2022-07-06T13:05:15;98649.66;;;35.19;31.77
7018;BME280;3549;42.162;24.726;2022-07-06T13:07:46;98918.56;;;37.89;30.45
7018;BME280;3549;42.162;24.726;2022-07-06T13:10:13;98738.19;;;36.21;31.27
7018;BME280;3549;42.162;24.726;2022-07-06T13:12:39;98861.31;;;36.20;33.19
7018;BME280;3549;42.162;24.726;2022-07-06T13:15:07;98907.56;;;35.33;34.30
7018;BME280;3549;42.162;24.726;2022-07-06T13:17:33;98913.81;;;34.63;35.42